sensor_id;sensor_type;location;lat;lon;timestamp;pressure;altitude;pressure_sealevel;temperature;humidity
34374;BME280;20637;55.770;37.592;2024-02-21T00:00:19;100570.19;;;-4.91;67.48
34374;BME280;20637;55.770;37.592;2024-02-21T00:02:45;100575.47;;;-4.91;67.48
34374;BME280;20637;55.770;37.592;2024-02-21T00:05:10;100565.00;;;-4.94;67.47
34374;BME280;20637;55.770;37.592;2024-02-21T00:07:36;100564.31;;;-4.99;67.65
34374;BME280;20637;55.770;37.592;2024-02-21T00:10:02;100563.44;;;-4.99;67.59
34374;BME280;20637;55.770;37.592;2024-02-21T00:12:28;100558.97;;;-4.97;68.38
34374;BME280;20637;55.770;37.592;2024-02-21T00:14:54;100558.94;;;-4.96;67.17
34374;BME280;20637;55.770;37.592;2024-02-21T00:17:20;100555.41;;;-4.95;68.10
34374;BME280;20637;55.770;37.592;2024-02-21T00:19:45;100550.97;;;-4.94;67.65
34374;BME280;20637;55.770;37.592;2024-02-21T00:22:11;100552.84;;;-4.98;67.95
34374;BME280;20637;55.770;37.592;2024-02-21T00:24:37;100558.19;;;-4.99;68.38
34374;BME280;20637;55.770;37.592;2024-02-21T00:27:02;100548.66;;;-5.03;68.35
34374;BME280;20637;55.770;37.592;2024-02-21T00:29:28;100559.34;;;-5.09;68.21
34374;BME280;20637;55.770;37.592;2024-02-21T00:31:54;100556.81;;;-5.12;67.15
34374;BME280;20637;55.770;37.592;2024-02-21T00:34:20;100552.53;;;-5.15;67.52
34374;BME280;20637;55.770;37.592;2024-02-21T00:36:45;100551.63;;;-5.14;67.93
34374;BME280;20637;55.770;37.592;2024-02-21T00:39:11;100547.13;;;-5.10;68.11
34374;BME280;20637;55.770;37.592;2024-02-21T00:41:37;100553.16;;;-5.07;67.78
34374;BME280;20637;55.770;37.592;2024-02-21T00:44:03;100547.91;;;-5.08;68.11
34374;BME280;20637;55.770;37.592;2024-02-21T00:46:31;100536.50;;;-5.07;68.21
34374;BME280;20637;55.770;37.592;2024-02-21T00:48:56;100541.00;;;-5.11;67.40
34374;BME280;20637;55.770;37.592;2024-02-21T00:51:22;100538.47;;;-5.14;67.39
34374;BME280;20637;55.770;37.592;2024-02-21T00:53:48;100537.53;;;-5.13;67.60
34374;BME280;20637;55.770;37.592;2024-02-21T00:56:13;100526.72;;;-5.04;67.65
34374;BME280;20637;55.770;37.592;2024-02-21T00:58:39;100534.47;;;-4.99;67.83
34374;BME280;20637;55.770;37.592;2024-02-21T01:01:04;100525.75;;;-5.01;67.51
34374;BME280;20637;55.770;37.592;2024-02-21T01:03:30;100521.41;;;-5.02;67.07
34374;BME280;20637;55.770;37.592;2024-02-21T01:05:56;100531.09;;;-5.03;67.69
34374;BME280;20637;55.770;37.592;2024-02-21T01:08:21;100522.94;;;-4.95;67.53
34374;BME280;20637;55.770;37.592;2024-02-21T01:10:47;100511.19;;;-4.85;67.54
34374;BME280;20637;55.770;37.592;2024-02-21T01:13:13;100512.81;;;-4.81;67.93
34374;BME280;20637;55.770;37.592;2024-02-21T01:15:38;100508.53;;;-4.85;68.12
34374;BME280;20637;55.770;37.592;2024-02-21T01:18:04;100509.44;;;-4.86;67.41
34374;BME280;20637;55.770;37.592;2024-02-21T01:20:30;100504.09;;;-4.83;66.89
34374;BME280;20637;55.770;37.592;2024-02-21T01:22:56;100499.75;;;-4.84;66.78
34374;BME280;20637;55.770;37.592;2024-02-21T01:25:22;100498.88;;;-4.85;67.14
34374;BME280;20637;55.770;37.592;2024-02-21T01:27:48;100495.34;;;-4.84;67.10
34374;BME280;20637;55.770;37.592;2024-02-21T01:30:14;100502.38;;;-4.84;66.84
34374;BME280;20637;55.770;37.592;2024-02-21T01:32:40;100495.28;;;-4.82;66.82
34374;BME280;20637;55.770;37.592;2024-02-21T01:35:07;100491.13;;;-4.89;67.83
34374;BME280;20637;55.770;37.592;2024-02-21T01:37:33;100493.03;;;-4.94;67.36
34374;BME280;20637;55.770;37.592;2024-02-21T01:39:59;100491.22;;;-4.92;67.78
34374;BME280;20637;55.770;37.592;2024-02-21T01:42:25;100492.03;;;-4.90;67.17
34374;BME280;20637;55.770;37.592;2024-02-21T01:44:50;100488.47;;;-4.88;67.18
34374;BME280;20637;55.770;37.592;2024-02-21T01:47:16;100484.91;;;-4.87;67.74
34374;BME280;20637;55.770;37.592;2024-02-21T01:49:42;100480.34;;;-4.82;67.80
34374;BME280;20637;55.770;37.592;2024-02-21T01:52:10;100489.72;;;-4.73;67.33
34374;BME280;20637;55.770;37.592;2024-02-21T01:54:37;100482.41;;;-4.65;66.98
34374;BME280;20637;55.770;37.592;2024-02-21T01:57:03;100483.16;;;-4.61;67.93
34374;BME280;20637;55.770;37.592;2024-02-21T01:59:29;100480.25;;;-4.54;67.88
34374;BME280;20637;55.770;37.592;2024-02-21T02:01:55;100473.97;;;-4.50;67.29
34374;BME280;20637;55.770;37.592;2024-02-21T02:04:22;100471.22;;;-4.47;67.55
34374;BME280;20637;55.770;37.592;2024-02-21T02:06:48;100465.16;;;-4.49;66.80
34374;BME280;20637;55.770;37.592;2024-02-21T02:09:15;100473.06;;;-4.49;66.93
34374;BME280;20637;55.770;37.592;2024-02-21T02:11:42;100457.28;;;-4.50;67.05
34374;BME280;20637;55.770;37.592;2024-02-21T02:14:09;100472.09;;;-4.46;67.78
34374;BME280;20637;55.770;37.592;2024-02-21T02:16:35;100465.91;;;-4.45;66.80
34374;BME280;20637;55.770;37.592;2024-02-21T02:19:01;100465.75;;;-4.41;67.80
34374;BME280;20637;55.770;37.592;2024-02-21T02:21:29;100461.16;;;-4.36;67.16
34374;BME280;20637;55.770;37.592;2024-02-21T02:23:57;100462.88;;;-4.35;67.65
34374;BME280;20637;55.770;37.592;2024-02-21T02:26:23;100462.75;;;-4.32;67.41
34374;BME280;20637;55.770;37.592;2024-02-21T02:28:49;100464.38;;;-4.27;67.75
34374;BME280;20637;55.770;37.592;2024-02-21T02:31:15;100470.34;;;-4.22;67.40
34374;BME280;20637;55.770;37.592;2024-02-21T02:33:42;100461.47;;;-4.20;67.94
34374;BME280;20637;55.770;37.592;2024-02-21T02:36:09;100469.22;;;-4.15;67.06
34374;BME280;20637;55.770;37.592;2024-02-21T02:38:35;100472.47;;;-4.09;66.95
34374;BME280;20637;55.770;37.592;2024-02-21T02:41:01;100470.69;;;-4.08;67.58
34374;BME280;20637;55.770;37.592;2024-02-21T02:43:26;100470.78;;;-4.10;66.58
34374;BME280;20637;55.770;37.592;2024-02-21T02:45:52;100469.03;;;-4.11;67.00
34374;BME280;20637;55.770;37.592;2024-02-21T02:48:18;100464.69;;;-4.12;67.45
34374;BME280;20637;55.770;37.592;2024-02-21T02:50:45;100472.88;;;-4.19;66.49
34374;BME280;20637;55.770;37.592;2024-02-21T02:53:11;100459.06;;;-4.26;66.77
34374;BME280;20637;55.770;37.592;2024-02-21T02:55:37;100457.34;;;-4.27;66.76
34374;BME280;20637;55.770;37.592;2024-02-21T02:58:03;100462.75;;;-4.32;67.21
34374;BME280;20637;55.770;37.592;2024-02-21T03:00:29;100465.28;;;-4.28;67.21
34374;BME280;20637;55.770;37.592;2024-02-21T03:02:55;100473.16;;;-4.27;67.12
34374;BME280;20637;55.770;37.592;2024-02-21T03:05:21;100457.91;;;-4.19;67.36
34374;BME280;20637;55.770;37.592;2024-02-21T03:07:48;100455.13;;;-4.14;67.88
34374;BME280;20637;55.770;37.592;2024-02-21T03:10:14;100462.00;;;-4.10;66.78
34374;BME280;20637;55.770;37.592;2024-02-21T03:12:44;100464.63;;;-4.10;66.74
34374;BME280;20637;55.770;37.592;2024-02-21T03:15:10;100461.75;;;-4.04;67.13
34374;BME280;20637;55.770;37.592;2024-02-21T03:17:35;100466.28;;;-4.08;67.51
34374;BME280;20637;55.770;37.592;2024-02-21T03:20:04;100462.00;;;-4.10;66.67
34374;BME280;20637;55.770;37.592;2024-02-21T03:22:31;100458.34;;;-4.06;67.55
34374;BME280;20637;55.770;37.592;2024-02-21T03:24:58;100458.44;;;-4.09;67.06
34374;BME280;20637;55.770;37.592;2024-02-21T03:27:23;100453.97;;;-4.07;67.30
34374;BME280;20637;55.770;37.592;2024-02-21T03:29:49;100461.06;;;-4.09;66.78
34374;BME280;20637;55.770;37.592;2024-02-21T03:32:15;100453.16;;;-4.09;67.10
34374;BME280;20637;55.770;37.592;2024-02-21T03:34:40;100451.66;;;-4.16;66.88
34374;BME280;20637;55.770;37.592;2024-02-21T03:37:06;100453.56;;;-4.20;67.45
34374;BME280;20637;55.770;37.592;2024-02-21T03:39:31;100461.25;;;-4.14;67.52
34374;BME280;20637;55.770;37.592;2024-02-21T03:42:00;100454.22;;;-4.13;67.23
34374;BME280;20637;55.770;37.592;2024-02-21T03:44:33;100448.88;;;-4.12;67.30
34374;BME280;20637;55.770;37.592;2024-02-21T03:46:59;100452.19;;;-4.07;67.85
34374;BME280;20637;55.770;37.592;2024-02-21T03:49:25;100453.69;;;-4.00;67.82
34374;BME280;20637;55.770;37.592;2024-02-21T03:51:51;100450.31;;;-4.03;66.93
34374;BME280;20637;55.770;37.592;2024-02-21T03:54:18;100453.81;;;-4.03;67.10
34374;BME280;20637;55.770;37.592;2024-02-21T03:56:44;100451.38;;;-4.09;66.76
34374;BME280;20637;55.770;37.592;2024-02-21T03:59:09;100452.25;;;-4.08;67.00
34374;BME280;20637;55.770;37.592;2024-02-21T04:01:35;100457.47;;;-4.07;66.68
34374;BME280;20637;55.770;37.592;2024-02-21T04:04:01;100452.25;;;-4.08;67.21
34374;BME280;20637;55.770;37.592;2024-02-21T04:06:27;100454.13;;;-4.12;67.38
34374;BME280;20637;55.770;37.592;2024-02-21T04:08:53;100445.25;;;-4.09;67.38
34374;BME280;20637;55.770;37.592;2024-02-21T04:11:18;100452.06;;;-4.04;67.55
34374;BME280;20637;55.770;37.592;2024-02-21T04:13:45;100446.75;;;-4.02;67.78
34374;BME280;20637;55.770;37.592;2024-02-21T04:16:10;100456.28;;;-3.98;68.05
34374;BME280;20637;55.770;37.592;2024-02-21T04:18:36;100461.34;;;-3.94;67.56
34374;BME280;20637;55.770;37.592;2024-02-21T04:21:02;100453.28;;;-3.89;67.55
34374;BME280;20637;55.770;37.592;2024-02-21T04:23:27;100451.50;;;-3.89;67.22
34374;BME280;20637;55.770;37.592;2024-02-21T04:25:53;100460.22;;;-3.87;67.30
34374;BME280;20637;55.770;37.592;2024-02-21T04:28:19;100462.59;;;-3.79;67.81
34374;BME280;20637;55.770;37.592;2024-02-21T04:30:44;100453.63;;;-3.75;67.43
34374;BME280;20637;55.770;37.592;2024-02-21T04:33:10;100451.00;;;-3.75;67.38
34374;BME280;20637;55.770;37.592;2024-02-21T04:35:36;100457.34;;;-3.80;67.37
34374;BME280;20637;55.770;37.592;2024-02-21T04:38:02;100452.06;;;-3.80;67.50
34374;BME280;20637;55.770;37.592;2024-02-21T04:40:27;100451.94;;;-3.77;67.36
34374;BME280;20637;55.770;37.592;2024-02-21T04:42:53;100455.56;;;-3.80;67.83
34374;BME280;20637;55.770;37.592;2024-02-21T04:45:19;100457.22;;;-3.77;67.56
34374;BME280;20637;55.770;37.592;2024-02-21T04:47:45;100457.91;;;-3.72;66.84
34374;BME280;20637;55.770;37.592;2024-02-21T04:50:11;100455.53;;;-3.78;67.70
34374;BME280;20637;55.770;37.592;2024-02-21T04:52:36;100458.34;;;-3.83;67.32
34374;BME280;20637;55.770;37.592;2024-02-21T04:55:02;100448.69;;;-3.84;67.04
34374;BME280;20637;55.770;37.592;2024-02-21T04:57:28;100447.03;;;-3.87;66.84
34374;BME280;20637;55.770;37.592;2024-02-21T04:59:54;100451.34;;;-3.84;67.57
34374;BME280;20637;55.770;37.592;2024-02-21T05:02:19;100445.06;;;-3.81;67.76
34374;BME280;20637;55.770;37.592;2024-02-21T05:04:47;100447.78;;;-3.83;67.95
34374;BME280;20637;55.770;37.592;2024-02-21T05:07:13;100457.53;;;-3.85;67.77
34374;BME280;20637;55.770;37.592;2024-02-21T05:09:39;100451.34;;;-3.84;67.96
34374;BME280;20637;55.770;37.592;2024-02-21T05:12:04;100445.75;;;-3.76;67.14
34374;BME280;20637;55.770;37.592;2024-02-21T05:14:30;100450.88;;;-3.72;67.60
34374;BME280;20637;55.770;37.592;2024-02-21T05:16:56;100448.97;;;-3.68;67.77
34374;BME280;20637;55.770;37.592;2024-02-21T05:19:21;100450.56;;;-3.64;68.02
34374;BME280;20637;55.770;37.592;2024-02-21T05:21:47;100447.75;;;-3.60;67.43
34374;BME280;20637;55.770;37.592;2024-02-21T05:24:13;100445.16;;;-3.61;67.84
34374;BME280;20637;55.770;37.592;2024-02-21T05:26:38;100453.81;;;-3.58;67.97
34374;BME280;20637;55.770;37.592;2024-02-21T05:29:04;100451.31;;;-3.61;67.87
34374;BME280;20637;55.770;37.592;2024-02-21T05:34:19;100453.94;;;-3.61;67.35
34374;BME280;20637;55.770;37.592;2024-02-21T05:36:45;100447.13;;;-3.66;67.66
34374;BME280;20637;55.770;37.592;2024-02-21T05:39:12;100451.91;;;-3.76;67.42
34374;BME280;20637;55.770;37.592;2024-02-21T05:41:37;100451.81;;;-3.74;68.07
34374;BME280;20637;55.770;37.592;2024-02-21T05:44:03;100448.97;;;-3.68;67.33
34374;BME280;20637;55.770;37.592;2024-02-21T05:46:29;100456.53;;;-3.59;67.91
34374;BME280;20637;55.770;37.592;2024-02-21T05:48:55;100455.56;;;-3.57;67.62
34374;BME280;20637;55.770;37.592;2024-02-21T05:51:20;100452.00;;;-3.56;67.39
34374;BME280;20637;55.770;37.592;2024-02-21T05:53:46;100458.00;;;-3.52;67.35
34374;BME280;20637;55.770;37.592;2024-02-21T05:56:13;100454.56;;;-3.54;67.33
34374;BME280;20637;55.770;37.592;2024-02-21T05:58:39;100455.69;;;-3.60;67.17
34374;BME280;20637;55.770;37.592;2024-02-21T06:01:05;100455.78;;;-3.63;67.70
34374;BME280;20637;55.770;37.592;2024-02-21T06:03:33;100453.03;;;-3.60;68.16
34374;BME280;20637;55.770;37.592;2024-02-21T06:05:59;100458.06;;;-3.54;68.49
34374;BME280;20637;55.770;37.592;2024-02-21T06:08:25;100461.50;;;-3.52;67.87
34374;BME280;20637;55.770;37.592;2024-02-21T06:10:51;100461.88;;;-3.61;67.53
34374;BME280;20637;55.770;37.592;2024-02-21T06:13:21;100460.25;;;-3.65;67.55
34374;BME280;20637;55.770;37.592;2024-02-21T06:15:47;100450.50;;;-3.63;67.98
34374;BME280;20637;55.770;37.592;2024-02-21T06:18:13;100459.22;;;-3.61;67.87
34374;BME280;20637;55.770;37.592;2024-02-21T06:20:39;100449.59;;;-3.62;67.66
34374;BME280;20637;55.770;37.592;2024-02-21T06:23:06;100458.06;;;-3.54;68.51
34374;BME280;20637;55.770;37.592;2024-02-21T06:25:32;100445.59;;;-3.50;68.39
34374;BME280;20637;55.770;37.592;2024-02-21T06:27:58;100443.66;;;-3.45;67.83
34374;BME280;20637;55.770;37.592;2024-02-21T06:30:23;100442.00;;;-3.48;68.44
34374;BME280;20637;55.770;37.592;2024-02-21T06:32:49;100455.06;;;-3.45;67.71
34374;BME280;20637;55.770;37.592;2024-02-21T06:35:15;100448.84;;;-3.44;68.13
34374;BME280;20637;55.770;37.592;2024-02-21T06:37:40;100443.53;;;-3.42;68.13
34374;BME280;20637;55.770;37.592;2024-02-21T06:40:07;100467.06;;;-3.36;68.10
34374;BME280;20637;55.770;37.592;2024-02-21T06:42:32;100454.69;;;-3.36;68.45
34374;BME280;20637;55.770;37.592;2024-02-21T06:44:58;100460.03;;;-3.37;68.06
34374;BME280;20637;55.770;37.592;2024-02-21T06:47:24;100448.63;;;-3.38;68.29
34374;BME280;20637;55.770;37.592;2024-02-21T06:49:50;100451.81;;;-3.29;67.96
34374;BME280;20637;55.770;37.592;2024-02-21T06:52:17;100453.28;;;-3.22;68.38
34374;BME280;20637;55.770;37.592;2024-02-21T06:54:46;100444.38;;;-3.20;68.18
34374;BME280;20637;55.770;37.592;2024-02-21T06:57:13;100452.38;;;-3.21;68.59
34374;BME280;20637;55.770;37.592;2024-02-21T06:59:40;100450.81;;;-3.27;67.96
34374;BME280;20637;55.770;37.592;2024-02-21T07:02:05;100451.94;;;-3.32;68.25
34374;BME280;20637;55.770;37.592;2024-02-21T07:04:31;100443.81;;;-3.28;67.82
34374;BME280;20637;55.770;37.592;2024-02-21T07:06:57;100444.28;;;-3.17;67.96
34374;BME280;20637;55.770;37.592;2024-02-21T07:09:23;100441.50;;;-3.14;68.10
34374;BME280;20637;55.770;37.592;2024-02-21T07:11:48;100445.78;;;-3.11;68.38
34374;BME280;20637;55.770;37.592;2024-02-21T07:14:14;100433.19;;;-3.05;68.16
34374;BME280;20637;55.770;37.592;2024-02-21T07:16:41;100440.91;;;-3.00;67.67
34374;BME280;20637;55.770;37.592;2024-02-21T07:19:06;100431.25;;;-3.01;67.80
34374;BME280;20637;55.770;37.592;2024-02-21T07:21:32;100435.75;;;-3.03;67.98
34374;BME280;20637;55.770;37.592;2024-02-21T07:23:58;100430.81;;;-3.11;67.60
34374;BME280;20637;55.770;37.592;2024-02-21T07:26:24;100435.22;;;-3.11;67.76
34374;BME280;20637;55.770;37.592;2024-02-21T07:28:49;100431.13;;;-3.18;67.60
34374;BME280;20637;55.770;37.592;2024-02-21T07:31:15;100432.56;;;-3.11;67.72
34374;BME280;20637;55.770;37.592;2024-02-21T07:33:41;100428.56;;;-3.00;67.98
34374;BME280;20637;55.770;37.592;2024-02-21T07:36:07;100433.94;;;-2.81;68.51
34374;BME280;20637;55.770;37.592;2024-02-21T07:38:34;100433.50;;;-2.70;68.24
34374;BME280;20637;55.770;37.592;2024-02-21T07:40:59;100425.88;;;-2.58;68.09
34374;BME280;20637;55.770;37.592;2024-02-21T07:43:25;100424.75;;;-2.52;67.88
34374;BME280;20637;55.770;37.592;2024-02-21T07:45:52;100419.81;;;-2.39;67.91
34374;BME280;20637;55.770;37.592;2024-02-21T07:48:19;100425.53;;;-2.30;67.59
34374;BME280;20637;55.770;37.592;2024-02-21T07:50:44;100435.09;;;-2.27;67.74
34374;BME280;20637;55.770;37.592;2024-02-21T07:53:10;100428.63;;;-2.20;67.93
34374;BME280;20637;55.770;37.592;2024-02-21T07:55:36;100420.97;;;-2.08;68.11
34374;BME280;20637;55.770;37.592;2024-02-21T07:58:01;100418.06;;;-2.02;67.17
34374;BME280;20637;55.770;37.592;2024-02-21T08:00:27;100422.88;;;-1.91;67.26
34374;BME280;20637;55.770;37.592;2024-02-21T08:02:53;100414.72;;;-2.05;66.34
34374;BME280;20637;55.770;37.592;2024-02-21T08:05:18;100410.84;;;-1.98;66.55
34374;BME280;20637;55.770;37.592;2024-02-21T08:07:44;100406.13;;;-1.92;66.52
34374;BME280;20637;55.770;37.592;2024-02-21T08:10:09;100414.28;;;-1.96;66.58
34374;BME280;20637;55.770;37.592;2024-02-21T08:12:35;100406.06;;;-2.09;66.11
34374;BME280;20637;55.770;37.592;2024-02-21T08:15:02;100408.06;;;-2.14;66.82
34374;BME280;20637;55.770;37.592;2024-02-21T08:17:30;100405.56;;;-2.17;66.19
34374;BME280;20637;55.770;37.592;2024-02-21T08:19:56;100412.34;;;-2.11;66.61
34374;BME280;20637;55.770;37.592;2024-02-21T08:22:22;100397.03;;;-2.05;66.65
34374;BME280;20637;55.770;37.592;2024-02-21T08:24:47;100404.50;;;-1.94;66.41
34374;BME280;20637;55.770;37.592;2024-02-21T08:27:13;100399.81;;;-1.89;66.19
34374;BME280;20637;55.770;37.592;2024-02-21T08:29:38;100410.78;;;-1.78;66.53
34374;BME280;20637;55.770;37.592;2024-02-21T08:32:04;100399.13;;;-1.74;65.92
34374;BME280;20637;55.770;37.592;2024-02-21T08:34:30;100407.06;;;-1.74;65.42
34374;BME280;20637;55.770;37.592;2024-02-21T08:36:59;100401.69;;;-1.72;66.19
34374;BME280;20637;55.770;37.592;2024-02-21T08:39:25;100409.22;;;-1.63;65.58
34374;BME280;20637;55.770;37.592;2024-02-21T08:41:51;100406.06;;;-1.71;64.95
34374;BME280;20637;55.770;37.592;2024-02-21T08:44:17;100406.84;;;-1.69;65.60
34374;BME280;20637;55.770;37.592;2024-02-21T08:46:42;100409.56;;;-1.71;65.33
34374;BME280;20637;55.770;37.592;2024-02-21T08:49:10;100405.03;;;-1.69;65.01
34374;BME280;20637;55.770;37.592;2024-02-21T08:51:36;100402.56;;;-1.72;65.37
34374;BME280;20637;55.770;37.592;2024-02-21T08:54:02;100402.56;;;-1.72;64.90
34374;BME280;20637;55.770;37.592;2024-02-21T08:56:30;100403.47;;;-1.73;64.80
34374;BME280;20637;55.770;37.592;2024-02-21T08:58:56;100405.34;;;-1.75;64.76
34374;BME280;20637;55.770;37.592;2024-02-21T09:01:23;100396.59;;;-1.77;65.46
34374;BME280;20637;55.770;37.592;2024-02-21T09:03:49;100393.25;;;-1.80;65.22
34374;BME280;20637;55.770;37.592;2024-02-21T09:06:19;100405.34;;;-1.75;65.63
34374;BME280;20637;55.770;37.592;2024-02-21T09:08:46;100397.81;;;-1.65;65.25
34374;BME280;20637;55.770;37.592;2024-02-21T09:11:11;100393.88;;;-1.57;65.00
34374;BME280;20637;55.770;37.592;2024-02-21T09:13:37;100396.09;;;-1.48;64.99
34374;BME280;20637;55.770;37.592;2024-02-21T09:16:03;100398.63;;;-1.63;63.84
34374;BME280;20637;55.770;37.592;2024-02-21T09:18:29;100400.19;;;-1.59;64.63
34374;BME280;20637;55.770;37.592;2024-02-21T09:20:55;100393.22;;;-1.43;65.04
34374;BME280;20637;55.770;37.592;2024-02-21T09:23:24;100389.84;;;-1.28;64.43
34374;BME280;20637;55.770;37.592;2024-02-21T09:25:49;100381.50;;;-1.20;64.54
34374;BME280;20637;55.770;37.592;2024-02-21T09:28:15;100386.63;;;-1.17;64.31
34374;BME280;20637;55.770;37.592;2024-02-21T09:30:41;100384.38;;;-1.08;64.34
34374;BME280;20637;55.770;37.592;2024-02-21T09:33:06;100373.38;;;-1.00;64.35
34374;BME280;20637;55.770;37.592;2024-02-21T09:35:32;100386.25;;;-0.92;63.95
34374;BME280;20637;55.770;37.592;2024-02-21T09:37:59;100381.34;;;-1.00;63.67
34374;BME280;20637;55.770;37.592;2024-02-21T09:40:25;100370.66;;;-0.99;64.31
34374;BME280;20637;55.770;37.592;2024-02-21T09:43:03;100374.09;;;-0.97;64.04
34374;BME280;20637;55.770;37.592;2024-02-21T09:45:38;100375.66;;;-0.92;63.66
34374;BME280;20637;55.770;37.592;2024-02-21T09:50:47;100369.81;;;-0.99;63.28
34374;BME280;20637;55.770;37.592;2024-02-21T09:53:15;100368.94;;;-1.00;63.25
34374;BME280;20637;55.770;37.592;2024-02-21T09:55:42;100366.13;;;-0.97;63.08
34374;BME280;20637;55.770;37.592;2024-02-21T09:58:08;100363.19;;;-0.90;63.85
34374;BME280;20637;55.770;37.592;2024-02-21T10:00:38;100370.91;;;-0.86;63.36
34374;BME280;20637;55.770;37.592;2024-02-21T10:03:04;100369.81;;;-0.82;62.97
34374;BME280;20637;55.770;37.592;2024-02-21T10:05:34;100364.66;;;-0.85;62.93
34374;BME280;20637;55.770;37.592;2024-02-21T10:08:01;100373.72;;;-0.89;63.15
34374;BME280;20637;55.770;37.592;2024-02-21T10:10:27;100368.09;;;-1.00;63.02
34374;BME280;20637;55.770;37.592;2024-02-21T10:12:55;100369.91;;;-1.01;62.71
34374;BME280;20637;55.770;37.592;2024-02-21T10:15:22;100366.31;;;-1.00;62.45
34374;BME280;20637;55.770;37.592;2024-02-21T10:17:50;100352.53;;;-0.89;63.38
34374;BME280;20637;55.770;37.592;2024-02-21T10:20:15;100364.53;;;-0.82;63.17
34374;BME280;20637;55.770;37.592;2024-02-21T10:22:41;100356.63;;;-0.83;62.84
34374;BME280;20637;55.770;37.592;2024-02-21T10:25:14;100358.88;;;-0.76;63.09
34374;BME280;20637;55.770;37.592;2024-02-21T10:27:40;100362.94;;;-0.69;63.17
34374;BME280;20637;55.770;37.592;2024-02-21T10:30:08;100358.34;;;-0.82;62.27
34374;BME280;20637;55.770;37.592;2024-02-21T10:32:51;100366.69;;;-1.07;61.73
34374;BME280;20637;55.770;37.592;2024-02-21T10:35:32;100362.94;;;-1.03;62.62
34374;BME280;20637;55.770;37.592;2024-02-21T10:37:59;100357.66;;;-1.03;62.04
34374;BME280;20637;55.770;37.592;2024-02-21T10:40:27;100355.00;;;-1.03;63.09
34374;BME280;20637;55.770;37.592;2024-02-21T10:42:57;100350.88;;;-0.91;63.11
34374;BME280;20637;55.770;37.592;2024-02-21T10:45:30;100352.19;;;-0.83;62.47
34374;BME280;20637;55.770;37.592;2024-02-21T10:48:08;100362.41;;;-0.92;62.71
34374;BME280;20637;55.770;37.592;2024-02-21T10:51:24;100357.25;;;-0.96;62.85
34374;BME280;20637;55.770;37.592;2024-02-21T10:56:33;100358.53;;;-0.85;62.50
34374;BME280;20637;55.770;37.592;2024-02-21T10:59:04;100356.34;;;-0.77;63.44
34374;BME280;20637;55.770;37.592;2024-02-21T11:01:30;100357.78;;;-0.72;63.00
34374;BME280;20637;55.770;37.592;2024-02-21T11:04:04;100359.59;;;-0.72;63.04
34374;BME280;20637;55.770;37.592;2024-02-21T11:06:31;100346.50;;;-0.75;62.43
34374;BME280;20637;55.770;37.592;2024-02-21T11:09:06;100354.28;;;-0.72;62.74
34374;BME280;20637;55.770;37.592;2024-02-21T11:11:43;100338.47;;;-0.74;62.32
34374;BME280;20637;55.770;37.592;2024-02-21T11:14:19;100351.72;;;-0.74;62.54
34374;BME280;20637;55.770;37.592;2024-02-21T11:16:46;100346.31;;;-0.72;62.93
34374;BME280;20637;55.770;37.592;2024-02-21T11:19:22;100338.31;;;-0.71;62.66
34374;BME280;20637;55.770;37.592;2024-02-21T11:21:51;100340.84;;;-0.69;62.45
34374;BME280;20637;55.770;37.592;2024-02-21T11:24:27;100333.47;;;-0.63;62.50
34374;BME280;20637;55.770;37.592;2024-02-21T11:26:54;100326.78;;;-0.70;62.40
34374;BME280;20637;55.770;37.592;2024-02-21T11:29:26;100325.34;;;-0.77;62.49
34374;BME280;20637;55.770;37.592;2024-02-21T11:31:52;100327.19;;;-0.77;62.73
34374;BME280;20637;55.770;37.592;2024-02-21T11:34:18;100328.81;;;-0.75;62.30
34374;BME280;20637;55.770;37.592;2024-02-21T11:36:48;100329.09;;;-0.81;62.51
34374;BME280;20637;55.770;37.592;2024-02-21T11:39:26;100323.50;;;-0.92;62.42
34374;BME280;20637;55.770;37.592;2024-02-21T11:44:27;100322.22;;;-1.01;62.77
34374;BME280;20637;55.770;37.592;2024-02-21T11:46:53;100315.25;;;-1.03;62.92
34374;BME280;20637;55.770;37.592;2024-02-21T11:49:18;100313.41;;;-1.01;62.48
34374;BME280;20637;55.770;37.592;2024-02-21T11:51:44;100322.13;;;-0.99;62.49
34374;BME280;20637;55.770;37.592;2024-02-21T11:54:11;100313.53;;;-1.04;62.08
34374;BME280;20637;55.770;37.592;2024-02-21T11:56:36;100317.53;;;-1.13;62.60
34374;BME280;20637;55.770;37.592;2024-02-21T11:59:02;100315.81;;;-1.14;62.86
34374;BME280;20637;55.770;37.592;2024-02-21T12:01:28;100315.81;;;-1.14;62.56
34374;BME280;20637;55.770;37.592;2024-02-21T12:03:54;100317.31;;;-1.08;63.04
34374;BME280;20637;55.770;37.592;2024-02-21T12:06:20;100317.31;;;-1.08;62.86
34374;BME280;20637;55.770;37.592;2024-02-21T12:08:47;100315.25;;;-1.03;63.24
34374;BME280;20637;55.770;37.592;2024-02-21T12:11:22;100306.38;;;-1.02;62.88
34374;BME280;20637;55.770;37.592;2024-02-21T12:14:04;100311.63;;;-1.01;62.55
34374;BME280;20637;55.770;37.592;2024-02-21T12:16:33;100308.16;;;-1.03;63.08
34374;BME280;20637;55.770;37.592;2024-02-21T12:19:02;100302.72;;;-1.17;62.17
34374;BME280;20637;55.770;37.592;2024-02-21T12:21:33;100309.72;;;-1.33;62.71
34374;BME280;20637;55.770;37.592;2024-02-21T12:24:33;100301.63;;;-1.47;62.71
34374;BME280;20637;55.770;37.592;2024-02-21T12:26:59;100302.41;;;-1.45;63.07
34374;BME280;20637;55.770;37.592;2024-02-21T12:29:25;100303.16;;;-1.60;63.02
34374;BME280;20637;55.770;37.592;2024-02-21T12:31:51;100297.94;;;-1.62;63.48
34374;BME280;20637;55.770;37.592;2024-02-21T12:34:17;100293.34;;;-1.58;63.72
34374;BME280;20637;55.770;37.592;2024-02-21T12:36:44;100295.59;;;-1.51;63.38
34374;BME280;20637;55.770;37.592;2024-02-21T12:39:12;100299.38;;;-1.55;63.58
34374;BME280;20637;55.770;37.592;2024-02-21T12:41:38;100292.34;;;-1.56;63.70
34374;BME280;20637;55.770;37.592;2024-02-21T12:44:04;100287.66;;;-1.51;64.05
34374;BME280;20637;55.770;37.592;2024-02-21T12:46:36;100287.53;;;-1.48;63.77
34374;BME280;20637;55.770;37.592;2024-02-21T12:49:02;100287.34;;;-1.62;63.73